Time;durP1;ratioP1;P1;durP2;ratioP2;P2;SDS_P1;SDS_P2;PMS_P1;PMS_P2;Temp;Humidity;BMP_temperature;BMP_pressure;BME280_temperature;BME280_humidity;BME280_pressure;Samples;Min_cycle;Max_cycle;Signal;HPM_P1;HPM_P2
2023/03/17 00:00:30;;;;;;;;;;;;;;;4.50;89.30;99684.59;5070970;28;19930;-76
2023/03/17 00:02:58;;;;;;;;;;;;;;;4.53;87.85;99670.16;5070311;28;19928;-77
2023/03/17 00:05:24;;;;;;;;;;;;;;;4.40;87.68;99679.94;5071766;28;20443;-77
2023/03/17 00:07:51;;;;;;;;;;;;;;;4.41;87.65;99680.78;5071653;28;19912;-76
2023/03/17 00:10:22;;;;;;;;;;;;;;;4.27;89.11;99684.22;5070798;28;20007;-76
2023/03/17 00:12:48;;;;;;;;;;;;;;;4.31;89.12;99685.28;5067107;28;19912;-76
2023/03/17 00:15:13;;;;;;;;;;;;;;;4.43;87.80;99675.78;5053598;28;19913;-76
2023/03/17 00:17:39;;;;;;;;;;;;;;;4.37;87.41;99680.53;5054243;28;19908;-76
2023/03/17 00:20:05;;;;;;;;;;;;;;;4.02;88.15;99691.56;5071695;28;19913;-76
2023/03/17 00:22:30;;;;;;;;;;;;;;;4.15;88.95;99681.78;5074922;28;19909;-76
2023/03/17 00:24:56;;;;;;;;;;;;;;;4.16;87.88;99683.47;5074273;28;19919;-76
2023/03/17 00:27:21;;;;;;;;;;;;;;;4.10;88.49;99678.22;5074830;28;19966;-76
2023/03/17 00:29:46;;;;;;;;;;;;;;;4.15;87.77;99683.75;5058810;28;19936;-76
2023/03/17 00:32:16;;;;;;;;;;;;;;;4.13;88.07;99672.94;5054845;28;20015;-75
2023/03/17 00:34:41;;;;;;;;;;;;;;;4.10;88.07;99678.22;5054750;28;19916;-76
2023/03/17 00:37:10;;;;;;;;;;;;;;;4.05;88.27;99682.69;5070600;28;19912;-77
2023/03/17 00:39:35;;;;;;;;;;;;;;;4.01;89.29;99680.78;5072660;28;19924;-76
2023/03/17 00:42:02;;;;;;;;;;;;;;;4.21;88.32;99679.81;5074612;28;20313;-77
2023/03/17 00:44:27;;;;;;;;;;;;;;;4.26;86.94;99679.78;5063945;28;19913;-76
2023/03/17 00:46:53;;;;;;;;;;;;;;;4.30;87.13;99675.31;5055011;28;20447;-76
2023/03/17 00:49:21;;;;;;;;;;;;;;;4.20;86.89;99679.00;5070685;28;19908;-76
2023/03/17 00:51:47;;;;;;;;;;;;;;;4.28;86.66;99682.25;5074698;28;19908;-76
2023/03/17 00:54:13;;;;;;;;;;;;;;;4.14;86.44;99682.09;5073392;28;19916;-76
2023/03/17 00:56:39;;;;;;;;;;;;;;;4.20;86.95;99679.00;5072955;28;19930;-76
2023/03/17 00:59:14;;;;;;;;;;;;;;;4.32;86.00;99678.63;5062050;28;20379;-76
2023/03/17 01:01:40;;;;;;;;;;;;;;;4.24;85.56;99683.94;5065892;28;19913;-76
2023/03/17 01:04:08;;;;;;;;;;;;;;;4.27;86.03;99683.38;5074254;28;19915;-76
2023/03/17 01:06:33;;;;;;;;;;;;;;;4.39;85.12;99689.38;5074180;28;19908;-76
2023/03/17 01:08:58;;;;;;;;;;;;;;;4.43;85.18;99686.84;5072923;28;20343;-76
2023/03/17 01:11:24;;;;;;;;;;;;;;;4.44;85.04;99688.50;5054646;28;19920;-76
2023/03/17 01:13:49;;;;;;;;;;;;;;;4.49;84.81;99691.25;5053960;28;19935;-76
2023/03/17 01:16:15;;;;;;;;;;;;;;;4.49;84.75;99699.56;5052619;28;19909;-76
2023/03/17 01:18:41;;;;;;;;;;;;;;;4.54;84.21;99699.53;5052759;28;20295;-76
2023/03/17 01:21:06;;;;;;;;;;;;;;;4.48;84.19;99706.22;5060589;28;19923;-77
2023/03/17 01:23:32;;;;;;;;;;;;;;;4.55;83.42;99703.94;5074112;28;19950;-77
2023/03/17 01:25:57;;;;;;;;;;;;;;;4.42;83.91;99707.38;5071117;28;19919;-77
2023/03/17 01:28:23;;;;;;;;;;;;;;;4.44;83.67;99699.59;5072629;28;19962;-77
2023/03/17 01:30:48;;;;;;;;;;;;;;;4.57;82.94;99703.66;5069523;28;19913;-77
2023/03/17 01:33:14;;;;;;;;;;;;;;;4.49;83.45;99705.09;5052305;28;19916;-77
2023/03/17 01:35:40;;;;;;;;;;;;;;;4.56;83.05;99708.34;5053570;28;19909;-77
2023/03/17 01:38:07;;;;;;;;;;;;;;;4.55;83.46;99711.44;5053601;28;19908;-77
2023/03/17 01:40:34;;;;;;;;;;;;;;;4.67;82.27;99713.81;5052277;28;19924;-78
2023/03/17 01:43:07;;;;;;;;;;;;;;;4.67;82.19;99713.81;5052037;28;19913;-77
2023/03/17 01:45:50;;;;;;;;;;;;;;;4.66;82.32;99709.41;5056851;28;19917;-77
2023/03/17 01:48:16;;;;;;;;;;;;;;;4.93;81.06;99717.22;5072741;28;19908;-76
2023/03/17 01:50:43;;;;;;;;;;;;;;;4.82;81.19;99715.66;5069054;28;19921;-77
2023/03/17 01:53:08;;;;;;;;;;;;;;;4.86;80.97;99717.56;5056394;28;19935;-77
2023/03/17 01:55:34;;;;;;;;;;;;;;;4.85;81.42;99720.59;5057954;28;19913;-77
2023/03/17 01:57:59;;;;;;;;;;;;;;;4.94;80.86;99716.09;5054920;28;19926;-77
2023/03/17 02:00:25;;;;;;;;;;;;;;;4.90;80.10;99726.94;5060166;28;19912;-77
2023/03/17 02:02:52;;;;;;;;;;;;;;;4.83;81.51;99725.63;5053407;28;19952;-77
2023/03/17 02:05:24;;;;;;;;;;;;;;;4.95;81.83;99728.00;5062535;28;20280;-77
2023/03/17 02:07:54;;;;;;;;;;;;;;;5.14;81.10;99736.44;5072993;28;19947;-77
2023/03/17 02:10:20;;;;;;;;;;;;;;;5.06;81.21;99727.63;5072089;28;20011;-76
2023/03/17 02:12:49;;;;;;;;;;;;;;;5.09;81.26;99729.00;5060480;28;19909;-76
2023/03/17 02:15:16;;;;;;;;;;;;;;;4.94;80.84;99729.13;5051697;28;19979;-76
2023/03/17 02:17:41;;;;;;;;;;;;;;;4.88;81.39;99725.56;5061250;28;19919;-77
2023/03/17 02:20:13;;;;;;;;;;;;;;;5.05;80.83;99736.22;5072659;28;19908;-76
2023/03/17 02:22:38;;;;;;;;;;;;;;;4.91;81.78;99733.31;5072639;28;20272;-76
2023/03/17 02:25:03;;;;;;;;;;;;;;;4.90;81.30;99737.22;5062193;28;19916;-76
2023/03/17 02:27:38;;;;;;;;;;;;;;;5.05;81.40;99739.00;5051470;28;19908;-77
2023/03/17 02:30:05;;;;;;;;;;;;;;;5.19;80.08;99740.00;5071074;28;19912;-76
2023/03/17 02:32:33;;;;;;;;;;;;;;;5.10;80.73;99738.97;5070909;28;19908;-76
2023/03/17 02:34:58;;;;;;;;;;;;;;;5.31;79.45;99747.09;5067666;28;19916;-76
2023/03/17 02:37:24;;;;;;;;;;;;;;;5.30;79.78;99743.47;5072220;28;19915;-76
2023/03/17 02:39:50;;;;;;;;;;;;;;;5.28;78.96;99745.72;5071037;28;20366;-76
2023/03/17 02:42:15;;;;;;;;;;;;;;;5.24;79.66;99752.16;5071048;28;19958;-77
2023/03/17 02:44:41;;;;;;;;;;;;;;;5.32;79.44;99757.88;5072198;28;19912;-77
2023/03/17 02:47:07;;;;;;;;;;;;;;;5.40;79.65;99756.41;5054946;28;20292;-76
2023/03/17 02:49:33;;;;;;;;;;;;;;;5.36;79.37;99757.28;5070228;28;19912;-76
2023/03/17 02:51:58;;;;;;;;;;;;;;;5.44;78.95;99763.03;5057244;28;20387;-76
2023/03/17 02:54:24;;;;;;;;;;;;;;;5.46;78.93;99763.56;5051269;28;19971;-77
2023/03/17 02:56:50;;;;;;;;;;;;;;;5.53;78.83;99757.69;5052281;28;19909;-76
2023/03/17 02:59:15;;;;;;;;;;;;;;;5.33;79.07;99759.53;5052140;28;19985;-77
2023/03/17 03:01:41;;;;;;;;;;;;;;;5.32;78.62;99757.06;5053145;28;20357;-77
2023/03/17 03:04:07;;;;;;;;;;;;;;;5.29;78.90;99764.03;5052328;28;19939;-76
2023/03/17 03:06:33;;;;;;;;;;;;;;;5.19;78.36;99769.66;5059714;28;19912;-76
2023/03/17 03:08:58;;;;;;;;;;;;;;;5.25;78.45;99762.13;5071625;28;19931;-77
2023/03/17 03:11:23;;;;;;;;;;;;;;;5.20;78.51;99769.38;5070440;28;19912;-76
2023/03/17 03:13:49;;;;;;;;;;;;;;;5.26;78.08;99770.16;5072144;28;19920;-77
2023/03/17 03:16:14;;;;;;;;;;;;;;;5.42;78.11;99779.13;5070841;28;20396;-77
2023/03/17 03:18:39;;;;;;;;;;;;;;;5.31;77.96;99780.38;5072123;28;19915;-76
2023/03/17 03:21:06;;;;;;;;;;;;;;;5.47;77.53;99781.88;5070081;28;19999;-77
2023/03/17 03:23:31;;;;;;;;;;;;;;;5.33;78.50;99776.16;5069822;28;19912;-77
2023/03/17 03:25:56;;;;;;;;;;;;;;;5.18;79.38;99781.88;5072058;28;19915;-77
2023/03/17 03:28:22;;;;;;;;;;;;;;;5.15;79.25;99774.94;5065925;28;20381;-77
2023/03/17 03:30:48;;;;;;;;;;;;;;;5.22;78.76;99782.13;5055218;28;19915;-77
2023/03/17 03:33:14;;;;;;;;;;;;;;;5.22;78.60;99777.38;5071943;28;19915;-77
2023/03/17 03:35:39;;;;;;;;;;;;;;;5.21;79.00;99781.28;5067746;28;20401;-76
2023/03/17 03:38:05;;;;;;;;;;;;;;;5.19;79.35;99778.81;5063125;28;19912;-76
2023/03/17 03:40:30;;;;;;;;;;;;;;;5.27;78.74;99780.13;5052413;28;19917;-75
2023/03/17 03:42:56;;;;;;;;;;;;;;;5.27;78.36;99784.84;5070244;28;19912;-77
2023/03/17 03:45:21;;;;;;;;;;;;;;;5.40;78.15;99781.38;5054908;28;19916;-76
2023/03/17 03:47:46;;;;;;;;;;;;;;;5.44;77.86;99782.47;5066359;28;19912;-77
2023/03/17 03:50:12;;;;;;;;;;;;;;;5.38;78.12;99783.63;5054458;28;19944;-77
2023/03/17 03:52:37;;;;;;;;;;;;;;;5.41;77.20;99796.91;5055571;28;19909;-77
2023/03/17 03:55:03;;;;;;;;;;;;;;;5.41;77.00;99799.69;5064362;28;19913;-77
2023/03/17 03:57:28;;;;;;;;;;;;;;;5.37;77.08;99801.38;5072816;28;19909;-77
2023/03/17 03:59:53;;;;;;;;;;;;;;;5.44;77.69;99799.09;5057428;28;19913;-77
2023/03/17 04:02:19;;;;;;;;;;;;;;;5.33;77.26;99805.88;5055288;28;19908;-77
2023/03/17 04:04:44;;;;;;;;;;;;;;;5.28;77.92;99806.75;5055491;28;19938;-77
2023/03/17 04:07:10;;;;;;;;;;;;;;;5.45;77.33;99803.53;5055396;28;19909;-77
2023/03/17 04:09:35;;;;;;;;;;;;;;;5.48;77.24;99805.72;5056779;28;19924;-77
2023/03/17 04:12:01;;;;;;;;;;;;;;;5.53;76.72;99806.78;5074968;28;19970;-77
2023/03/17 04:14:27;;;;;;;;;;;;;;;5.58;76.85;99803.97;5058324;28;20275;-77
2023/03/17 04:16:52;;;;;;;;;;;;;;;5.54;76.15;99809.28;5073523;28;19943;-77
2023/03/17 04:19:17;;;;;;;;;;;;;;;5.60;75.95;99815.59;5074947;28;19912;-77
2023/03/17 04:21:43;;;;;;;;;;;;;;;5.63;75.80;99820.56;5063899;28;19958;-77
2023/03/17 04:24:08;;;;;;;;;;;;;;;5.57;75.29;99822.56;5058091;28;20390;-77
2023/03/17 04:26:34;;;;;;;;;;;;;;;5.66;75.09;99824.69;5072707;28;19952;-77
2023/03/17 04:28:59;;;;;;;;;;;;;;;5.68;75.41;99826.06;5073296;28;19915;-77
2023/03/17 04:31:25;;;;;;;;;;;;;;;5.70;75.15;99834.94;5066622;28;19912;-77
2023/03/17 04:33:50;;;;;;;;;;;;;;;5.57;74.95;99835.63;5066216;28;19912;-77
2023/03/17 04:36:18;;;;;;;;;;;;;;;5.61;75.06;99836.69;5054705;28;19963;-77
2023/03/17 04:38:43;;;;;;;;;;;;;;;5.66;74.62;99839.38;5053195;28;19909;-77
2023/03/17 04:41:10;;;;;;;;;;;;;;;5.72;74.53;99849.34;5054553;28;19917;-77
2023/03/17 04:43:35;;;;;;;;;;;;;;;5.72;74.61;99851.25;5058058;28;20303;-77
2023/03/17 04:46:00;;;;;;;;;;;;;;;5.57;74.39;99847.53;5068159;28;20027;-77
2023/03/17 04:48:26;;;;;;;;;;;;;;;5.46;75.50;99865.38;5063139;28;19913;-77
2023/03/17 04:50:51;;;;;;;;;;;;;;;5.53;75.29;99859.50;5069364;28;19916;-80
2023/03/17 04:53:16;;;;;;;;;;;;;;;5.52;75.28;99867.00;5074092;28;19909;-77
2023/03/17 04:55:42;;;;;;;;;;;;;;;5.42;76.15;99862.38;5072763;28;19919;-77
2023/03/17 04:58:07;;;;;;;;;;;;;;;5.46;75.51;99873.72;5066013;28;19920;-75
2023/03/17 05:00:37;;;;;;;;;;;;;;;5.55;75.60;99869.19;5069705;28;21172;-74
2023/03/17 05:03:03;;;;;;;;;;;;;;;5.69;75.49;99882.38;5071301;28;19913;-73
2023/03/17 05:05:28;;;;;;;;;;;;;;;5.71;75.92;99883.75;5065908;28;19912;-71
2023/03/17 05:07:53;;;;;;;;;;;;;;;5.70;76.26;99884.88;5069124;28;20333;-70
2023/03/17 05:10:19;;;;;;;;;;;;;;;5.64;76.11;99888.81;5073634;28;19985;-74
2023/03/17 05:12:44;;;;;;;;;;;;;;;5.55;76.94;99882.22;5072230;28;20375;-75
2023/03/17 05:15:10;;;;;;;;;;;;;;;5.73;77.19;99889.00;5065909;28;19917;-71
2023/03/17 05:17:35;;;;;;;;;;;;;;;5.68;75.71;99895.47;5067693;28;19916;-80
2023/03/17 05:20:00;;;;;;;;;;;;;;;5.65;75.32;99898.78;5056592;28;19962;-75
2023/03/17 05:22:26;;;;;;;;;;;;;;;5.64;74.71;99902.69;5072088;28;19916;-76
2023/03/17 05:24:51;;;;;;;;;;;;;;;5.57;75.07;99897.47;5073344;28;19916;-74
2023/03/17 05:27:16;;;;;;;;;;;;;;;5.38;74.79;99900.13;5066022;28;19912;-72
2023/03/17 05:29:41;;;;;;;;;;;;;;;5.05;75.34;99910.91;5060059;28;19982;-78
2023/03/17 05:32:07;;;;;;;;;;;;;;;5.28;75.48;99903.00;5060867;28;20001;-75
2023/03/17 05:34:32;;;;;;;;;;;;;;;5.38;75.79;99910.44;5067785;28;19920;-74
2023/03/17 05:36:57;;;;;;;;;;;;;;;5.27;76.37;99906.88;5070656;28;19916;-74
2023/03/17 05:39:23;;;;;;;;;;;;;;;5.13;77.06;99907.53;5067140;28;19917;-74
2023/03/17 05:41:49;;;;;;;;;;;;;;;4.98;77.42;99913.19;5068619;28;20069;-74
2023/03/17 05:44:15;;;;;;;;;;;;;;;5.24;76.56;99919.38;5060900;28;19916;-72
2023/03/17 05:46:40;;;;;;;;;;;;;;;5.21;76.67;99931.06;5061697;28;19916;-73
2023/03/17 05:49:06;;;;;;;;;;;;;;;5.29;77.32;99929.59;5064155;28;19912;-71
2023/03/17 05:51:31;;;;;;;;;;;;;;;5.28;75.72;99934.34;5050267;28;20017;-74
2023/03/17 05:53:57;;;;;;;;;;;;;;;5.25;75.84;99934.09;5062668;28;19919;-74
2023/03/17 05:56:23;;;;;;;;;;;;;;;5.36;76.85;99937.59;5070797;28;20399;-71
2023/03/17 05:58:49;;;;;;;;;;;;;;;5.47;76.43;99937.25;5056100;28;20367;-74
2023/03/17 06:01:14;;;;;;;;;;;;;;;5.54;75.48;99939.69;5057242;28;19931;-76
2023/03/17 06:03:40;;;;;;;;;;;;;;;5.66;75.06;99944.03;5048289;28;20446;-74
2023/03/17 06:06:06;;;;;;;;;;;;;;;5.53;75.96;99949.13;5064123;28;19989;-75
2023/03/17 06:08:31;;;;;;;;;;;;;;;5.62;76.37;99954.91;5062206;28;20448;-73
2023/03/17 06:10:57;;;;;;;;;;;;;;;5.59;75.40;99944.38;5056731;28;19912;-75
2023/03/17 06:13:22;;;;;;;;;;;;;;;5.17;75.38;99952.97;5067773;28;19955;-74
2023/03/17 06:15:50;;;;;;;;;;;;;;;5.20;76.41;99965.44;5068788;28;20372;-74
2023/03/17 06:18:16;;;;;;;;;;;;;;;4.89;78.02;99954.56;5068061;28;19923;-74
2023/03/17 06:20:41;;;;;;;;;;;;;;;5.37;77.45;99959.53;5068171;28;19920;-71
2023/03/17 06:23:07;;;;;;;;;;;;;;;5.44;77.25;99959.19;5067727;28;19959;-73
2023/03/17 06:25:33;;;;;;;;;;;;;;;5.55;77.45;99965.47;5068496;28;19947;-74
2023/03/17 06:28:01;;;;;;;;;;;;;;;5.60;76.12;99963.50;5067972;28;19921;-77
2023/03/17 06:30:26;;;;;;;;;;;;;;;5.79;74.60;99962.81;5063736;28;19916;-75
2023/03/17 06:32:51;;;;;;;;;;;;;;;5.70;74.88;99965.38;5058655;28;20023;-75
2023/03/17 06:35:16;;;;;;;;;;;;;;;5.36;75.22;99971.72;5066414;28;20363;-74
2023/03/17 06:37:42;;;;;;;;;;;;;;;5.64;75.69;99966.53;5067986;28;19923;-74
2023/03/17 06:40:09;;;;;;;;;;;;;;;5.27;74.67;99981.78;5067630;28;19974;-73
2023/03/17 06:42:34;;;;;;;;;;;;;;;5.24;75.25;99974.03;5066859;28;20387;-72
2023/03/17 06:44:59;;;;;;;;;;;;;;;5.36;76.55;99973.66;5068987;28;19991;-72
2023/03/17 06:47:25;;;;;;;;;;;;;;;5.52;77.82;99977.16;5064506;28;20359;-74
2023/03/17 06:49:50;;;;;;;;;;;;;;;5.51;75.31;99975.50;5067513;28;19912;-75
2023/03/17 06:52:15;;;;;;;;;;;;;;;5.74;74.38;99968.41;5070393;28;19913;-76
2023/03/17 06:54:41;;;;;;;;;;;;;;;5.68;73.73;99975.09;5066704;28;19916;-76
2023/03/17 06:57:06;;;;;;;;;;;;;;;5.74;73.14;99974.78;5066465;28;20414;-75
2023/03/17 06:59:32;;;;;;;;;;;;;;;5.76;73.68;99978.09;5069209;28;19931;-75
2023/03/17 07:01:58;;;;;;;;;;;;;;;5.66;72.90;99978.16;5069914;28;19913;-74
2023/03/17 07:04:24;;;;;;;;;;;;;;;5.68;72.78;99977.88;5071399;28;20452;-75
2023/03/17 07:06:50;;;;;;;;;;;;;;;6.12;74.09;99978.91;5070462;28;19923;-75
2023/03/17 07:09:16;;;;;;;;;;;;;;;5.92;73.41;99980.75;5069757;28;19919;-71
2023/03/17 07:11:41;;;;;;;;;;;;;;;5.91;73.87;99990.19;5071592;28;19991;-72
2023/03/17 07:14:07;;;;;;;;;;;;;;;6.07;72.81;99990.91;5069419;28;19916;-72
2023/03/17 07:16:33;;;;;;;;;;;;;;;6.17;72.22;99988.03;5067746;28;19916;-73
2023/03/17 07:18:58;;;;;;;;;;;;;;;5.83;70.70;99988.84;5066671;28;19912;-70
2023/03/17 07:21:24;;;;;;;;;;;;;;;5.95;73.13;99985.72;5056217;28;19919;-71
2023/03/17 07:23:49;;;;;;;;;;;;;;;6.14;70.83;99990.56;5055430;28;19962;-71
2023/03/17 07:26:14;;;;;;;;;;;;;;;6.52;71.31;99990.75;5066374;28;19913;-75
2023/03/17 07:28:40;;;;;;;;;;;;;;;6.67;70.87;99983.34;5073498;28;19912;-73
2023/03/17 07:31:12;;;;;;;;;;;;;;;6.85;69.14;99992.88;5071965;28;20055;-74
2023/03/17 07:33:38;;;;;;;;;;;;;;;6.56;69.92;99985.41;5067458;28;19916;-72
2023/03/17 07:36:05;;;;;;;;;;;;;;;6.97;69.10;99981.28;5075111;28;19908;-71
2023/03/17 07:38:32;;;;;;;;;;;;;;;6.97;69.13;99981.28;5071733;28;19912;-72
2023/03/17 07:40:58;;;;;;;;;;;;;;;6.90;68.32;99990.00;5074819;28;19958;-70
2023/03/17 07:43:23;;;;;;;;;;;;;;;6.63;68.13;99994.22;5072875;28;19959;-76
2023/03/17 07:45:48;;;;;;;;;;;;;;;6.64;70.49;99989.50;5074264;28;20090;-73
2023/03/17 07:48:14;;;;;;;;;;;;;;;7.13;70.59;99988.31;5074867;28;19912;-73
2023/03/17 07:50:39;;;;;;;;;;;;;;;7.65;68.61;99986.72;5071436;28;20406;-72
2023/03/17 07:53:05;;;;;;;;;;;;;;;7.12;66.09;99997.81;5073158;28;19919;-72
2023/03/17 07:55:30;;;;;;;;;;;;;;;7.49;68.25;99991.72;5072751;28;20003;-74
2023/03/17 07:57:56;;;;;;;;;;;;;;;7.48;67.17;99996.44;5073770;28;19916;-69
2023/03/17 08:00:22;;;;;;;;;;;;;;;8.05;66.21;99980.78;5067201;28;20432;-69
2023/03/17 08:02:47;;;;;;;;;;;;;;;8.12;66.60;99989.59;5071080;28;19962;-73
2023/03/17 08:05:13;;;;;;;;;;;;;;;7.71;64.68;99994.69;5071870;28;20332;-72
2023/03/17 08:07:38;;;;;;;;;;;;;;;7.83;64.46;99990.59;5066587;28;19912;-72
2023/03/17 08:10:07;;;;;;;;;;;;;;;8.14;65.48;99992.88;5073041;28;19912;-73
2023/03/17 08:12:33;;;;;;;;;;;;;;;8.06;65.84;99990.78;5074290;28;19924;-71
2023/03/17 08:14:58;;;;;;;;;;;;;;;8.19;65.65;99984.41;5072355;28;19928;-73
2023/03/17 08:17:26;;;;;;;;;;;;;;;7.70;63.87;99990.25;5069961;28;20314;-74
2023/03/17 08:19:54;;;;;;;;;;;;;;;7.87;62.42;99989.69;5067279;28;19913;-74
2023/03/17 08:22:20;;;;;;;;;;;;;;;7.93;60.18;99995.22;5071362;28;19920;-74
2023/03/17 08:24:45;;;;;;;;;;;;;;;7.98;57.83;99984.81;5073792;28;19913;-73
2023/03/17 08:27:11;;;;;;;;;;;;;;;7.87;55.66;99992.50;5058899;28;20339;-74
2023/03/17 08:29:36;;;;;;;;;;;;;;;8.59;56.85;99985.97;5068144;28;20001;-74
2023/03/17 08:32:02;;;;;;;;;;;;;;;9.09;53.67;99991.63;5072087;28;20073;-73
2023/03/17 08:34:27;;;;;;;;;;;;;;;9.38;53.48;99981.22;5065842;28;19923;-73
2023/03/17 08:36:52;;;;;;;;;;;;;;;9.87;53.99;99983.44;5071709;28;19923;-73
2023/03/17 08:39:19;;;;;;;;;;;;;;;10.27;49.61;99980.72;5064339;28;19913;-73
2023/03/17 08:41:44;;;;;;;;;;;;;;;9.67;47.41;99983.63;5069036;28;19970;-74
2023/03/17 08:44:10;;;;;;;;;;;;;;;9.41;47.29;99978.63;5069730;28;19912;-72
2023/03/17 08:46:35;;;;;;;;;;;;;;;9.10;49.70;99984.91;5068652;28;19983;-70
2023/03/17 08:49:02;;;;;;;;;;;;;;;9.29;51.51;99972.78;5070018;28;20375;-75
2023/03/17 08:51:28;;;;;;;;;;;;;;;9.56;54.18;99979.41;5066571;28;20002;-74
2023/03/17 08:53:54;;;;;;;;;;;;;;;9.21;53.58;99976.31;5070849;28;19922;-73
2023/03/17 08:56:20;;;;;;;;;;;;;;;9.12;50.69;99968.66;5070524;28;19912;-73
2023/03/17 08:58:45;;;;;;;;;;;;;;;9.57;49.54;99972.69;5068294;28;20008;-74
2023/03/17 09:01:11;;;;;;;;;;;;;;;8.85;50.38;99975.94;5069021;28;19912;-73
2023/03/17 09:03:38;;;;;;;;;;;;;;;9.18;51.44;99962.97;5067739;28;19916;-75
2023/03/17 09:06:05;;;;;;;;;;;;;;;9.77;50.76;99971.34;5067279;28;20023;-73
2023/03/17 09:08:31;;;;;;;;;;;;;;;10.44;47.41;99967.97;5062094;28;20003;-73
2023/03/17 09:10:57;;;;;;;;;;;;;;;10.93;46.36;99970.81;5070298;28;19908;-74
2023/03/17 09:13:22;;;;;;;;;;;;;;;11.11;47.67;99965.25;5073847;28;20276;-74
2023/03/17 09:15:48;;;;;;;;;;;;;;;11.26;44.97;99961.13;5072757;28;19908;-74
2023/03/17 09:18:13;;;;;;;;;;;;;;;11.22;45.05;99970.19;5073796;28;19931;-74
2023/03/17 09:20:38;;;;;;;;;;;;;;;11.14;45.34;99971.00;5071873;28;19912;-71
2023/03/17 09:23:06;;;;;;;;;;;;;;;11.01;43.87;99969.16;5073096;28;20009;-74
2023/03/17 09:25:33;;;;;;;;;;;;;;;10.83;44.80;99969.13;5072632;28;20445;-75
2023/03/17 09:27:59;;;;;;;;;;;;;;;10.71;45.78;99969.75;5073033;28;20005;-73
2023/03/17 09:30:25;;;;;;;;;;;;;;;10.39;45.46;99969.75;5069027;28;19970;-73
2023/03/17 09:32:51;;;;;;;;;;;;;;;10.65;48.01;99965.47;5066419;28;19921;-74
2023/03/17 09:35:16;;;;;;;;;;;;;;;10.74;47.12;99971.06;5070922;28;19917;-74
2023/03/17 09:37:42;;;;;;;;;;;;;;;10.58;46.23;99965.94;5069916;28;20413;-74
2023/03/17 09:40:12;;;;;;;;;;;;;;;11.30;46.25;99968.56;5072698;28;19916;-72
2023/03/17 09:42:40;;;;;;;;;;;;;;;11.55;44.00;99959.69;5064799;28;19912;-75
2023/03/17 09:45:20;;;;;;;;;;;;;;;10.98;46.08;99965.06;5062547;28;19916;-72
2023/03/17 09:47:48;;;;;;;;;;;;;;;9.86;48.66;99965.81;5069339;28;20374;-72
2023/03/17 09:50:21;;;;;;;;;;;;;;;9.68;50.22;99967.66;5070285;28;19927;-77
2023/03/17 09:52:46;;;;;;;;;;;;;;;10.49;47.97;99951.88;5069404;28;19915;-73
2023/03/17 09:55:20;;;;;;;;;;;;;;;10.49;46.84;99949.09;5069945;28;20491;-73
2023/03/17 09:57:46;;;;;;;;;;;;;;;10.61;45.56;99954.09;5068099;28;19912;-73
2023/03/17 10:00:16;;;;;;;;;;;;;;;10.73;45.84;99950.66;5069563;28;20444;-73
2023/03/17 10:02:42;;;;;;;;;;;;;;;10.63;45.96;99962.16;5069720;28;20003;-72
2023/03/17 10:05:18;;;;;;;;;;;;;;;10.78;45.43;99953.31;5069237;28;20343;-76
2023/03/17 10:07:47;;;;;;;;;;;;;;;11.11;44.40;99952.06;5068151;28;19939;-72
2023/03/17 10:10:27;;;;;;;;;;;;;;;10.92;43.36;99949.56;5070356;28;19916;-74
2023/03/17 10:12:58;;;;;;;;;;;;;;;11.00;44.22;99959.13;5065907;28;20378;-73
2023/03/17 10:15:23;;;;;;;;;;;;;;;10.72;44.98;99946.22;5067479;28;20358;-72
2023/03/17 10:17:50;;;;;;;;;;;;;;;10.32;44.14;99943.41;5069389;28;19958;-71
2023/03/17 10:20:21;;;;;;;;;;;;;;;10.64;48.08;99936.66;5067587;28;19912;-72
2023/03/17 10:22:51;;;;;;;;;;;;;;;10.94;45.29;99930.47;5050897;28;20012;-74
2023/03/17 10:25:18;;;;;;;;;;;;;;;11.18;43.79;99929.19;5063655;28;19922;-78
2023/03/17 10:27:47;;;;;;;;;;;;;;;11.42;43.61;99931.50;5065110;28;20427;-72
2023/03/17 10:30:14;;;;;;;;;;;;;;;11.25;43.09;99935.13;5047891;28;19978;-76
2023/03/17 10:32:40;;;;;;;;;;;;;;;11.07;43.37;99937.91;5059966;28;19962;-73
2023/03/17 10:35:06;;;;;;;;;;;;;;;11.18;43.83;99931.97;5068309;28;19951;-77
2023/03/17 10:37:35;;;;;;;;;;;;;;;11.32;43.41;99938.25;5067602;28;19962;-76
2023/03/17 10:40:03;;;;;;;;;;;;;;;11.40;42.46;99933.00;5066201;28;19974;-75
2023/03/17 10:42:31;;;;;;;;;;;;;;;11.56;43.46;99928.53;5062883;28;19919;-76
2023/03/17 10:45:16;;;;;;;;;;;;;;;10.94;43.23;99936.91;5066075;28;19947;-72
2023/03/17 10:47:46;;;;;;;;;;;;;;;11.89;41.83;99936.41;5052591;28;19916;-74
2023/03/17 10:50:12;;;;;;;;;;;;;;;12.38;41.30;99926.09;5068592;28;19944;-79
2023/03/17 10:52:39;;;;;;;;;;;;;;;12.47;40.47;99927.69;5067691;28;19974;-75
2023/03/17 10:55:05;;;;;;;;;;;;;;;12.54;40.41;99929.97;5061648;28;19924;-75
2023/03/17 10:57:32;;;;;;;;;;;;;;;12.19;40.93;99919.72;5066772;28;19919;-76
2023/03/17 11:00:00;;;;;;;;;;;;;;;11.99;40.37;99915.59;5068238;28;19916;-76
2023/03/17 11:02:30;;;;;;;;;;;;;;;12.02;39.64;99917.78;5071292;28;19919;-76
2023/03/17 11:05:08;;;;;;;;;;;;;;;11.53;41.24;99915.19;5064096;28;19951;-76
2023/03/17 11:07:37;;;;;;;;;;;;;;;11.43;41.00;99909.91;5061778;28;19951;-75
2023/03/17 11:10:04;;;;;;;;;;;;;;;11.27;42.33;99918.81;5070074;28;19974;-75
2023/03/17 11:12:38;;;;;;;;;;;;;;;10.90;42.44;99909.88;5069536;28;19934;-76
2023/03/17 11:15:06;;;;;;;;;;;;;;;11.25;42.60;99907.13;5059478;28;20011;-76
2023/03/17 11:17:38;;;;;;;;;;;;;;;11.47;42.30;99897.72;5070904;28;20502;-73
2023/03/17 11:20:15;;;;;;;;;;;;;;;11.69;41.50;99911.88;5071551;28;20402;-80
2023/03/17 11:22:45;;;;;;;;;;;;;;;11.12;41.14;99903.31;5070759;28;19908;-76
2023/03/17 11:25:10;;;;;;;;;;;;;;;10.60;42.09;99906.84;5071012;28;19919;-79
2023/03/17 11:27:45;;;;;;;;;;;;;;;10.49;44.17;99901.53;5071072;28;19912;-78
2023/03/17 11:30:33;;;;;;;;;;;;;;;10.80;42.45;99888.66;5070999;28;20007;-72
2023/03/17 11:33:08;;;;;;;;;;;;;;;11.28;42.17;99886.88;5073272;28;19915;-76
2023/03/17 11:35:57;;;;;;;;;;;;;;;11.28;42.05;99884.06;5059630;28;20615;-77
2023/03/17 11:38:24;;;;;;;;;;;;;;;11.50;40.54;99887.84;5061621;28;19921;-77
2023/03/17 11:40:59;;;;;;;;;;;;;;;11.65;40.07;99890.13;5062032;28;19916;-76
2023/03/17 11:43:45;;;;;;;;;;;;;;;11.38;40.54;99889.34;5070306;28;19966;-78
2023/03/17 11:46:19;;;;;;;;;;;;;;;11.29;41.17;99893.31;5060096;28;19912;-77
2023/03/17 11:48:54;;;;;;;;;;;;;;;11.56;42.02;99886.50;5066743;28;19913;-77
2023/03/17 11:51:30;;;;;;;;;;;;;;;11.39;42.14;99881.75;5066979;28;19912;-76
2023/03/17 11:54:04;;;;;;;;;;;;;;;11.61;40.94;99885.50;5058390;28;19922;-77
2023/03/17 11:56:38;;;;;;;;;;;;;;;11.06;42.18;99874.66;5075290;28;19931;-77
2023/03/17 11:59:10;;;;;;;;;;;;;;;11.24;42.36;99875.50;5072232;28;19957;-81
2023/03/17 12:01:59;;;;;;;;;;;;;;;11.69;40.25;99883.84;5061112;28;21119;-77
2023/03/17 12:04:33;;;;;;;;;;;;;;;11.75;41.03;99879.72;5052792;28;19912;-76
2023/03/17 12:07:20;;;;;;;;;;;;;;;11.85;41.04;99870.97;5073808;28;20288;-77
2023/03/17 12:09:49;;;;;;;;;;;;;;;11.50;40.14;99885.03;5076739;28;19919;-77
2023/03/17 12:12:20;;;;;;;;;;;;;;;11.72;41.72;99872.00;5079224;28;19908;-77
2023/03/17 12:14:51;;;;;;;;;;;;;;;11.91;41.68;99869.63;5082533;28;19916;-77
2023/03/17 12:17:19;;;;;;;;;;;;;;;11.92;39.84;99871.25;5081814;28;19908;-77
2023/03/17 12:19:54;;;;;;;;;;;;;;;12.01;39.57;99873.22;5074980;28;19969;-77
2023/03/17 12:22:25;;;;;;;;;;;;;;;12.09;39.25;99875.22;5074915;28;19920;-77
2023/03/17 12:25:04;;;;;;;;;;;;;;;11.84;39.61;99862.88;5076520;28;19923;-77
2023/03/17 12:27:35;;;;;;;;;;;;;;;11.40;41.04;99868.56;5078723;28;20438;-77
2023/03/17 12:30:04;;;;;;;;;;;;;;;11.46;42.01;99864.44;5077716;28;19919;-77
2023/03/17 12:32:43;;;;;;;;;;;;;;;11.37;42.36;99862.47;5077567;28;20002;-77
2023/03/17 12:35:27;;;;;;;;;;;;;;;11.38;42.15;99864.13;5076683;28;19955;-77
2023/03/17 12:37:54;;;;;;;;;;;;;;;11.72;40.96;99861.59;5069041;28;19961;-77
2023/03/17 12:40:23;;;;;;;;;;;;;;;11.72;40.81;99861.59;5071398;28;19916;-77
2023/03/17 12:43:00;;;;;;;;;;;;;;;11.72;40.37;99869.19;5084010;28;19927;-77
2023/03/17 12:45:45;;;;;;;;;;;;;;;11.68;40.05;99862.59;5080053;28;20363;-77
2023/03/17 12:48:16;;;;;;;;;;;;;;;11.86;40.19;99863.38;5070253;28;19912;-75
2023/03/17 12:50:42;;;;;;;;;;;;;;;11.78;39.77;99854.66;5070960;28;19912;-77
2023/03/17 12:53:28;;;;;;;;;;;;;;;12.04;40.37;99859.41;5069146;28;19913;-77
2023/03/17 12:55:55;;;;;;;;;;;;;;;12.06;39.89;99864.66;5070792;28;19995;-77